Time;durP1;ratioP1;P1;durP2;ratioP2;P2;SDS_P1;SDS_P2;PMS_P1;PMS_P2;Temp;Humidity;BMP_temperature;BMP_pressure;BME280_temperature;BME280_humidity;BME280_pressure;Samples;Min_cycle;Max_cycle;Signal;HPM_P1;HPM_P2
2021/12/05 00:24:10;;;;;;;43.72;22.02;;;3.60;99.90;;;;;;5071555;28;20079;-79
2021/12/05 00:26:38;;;;;;;28.50;16.42;;;3.60;99.90;;;;;;5076093;28;20043;-76
2021/12/05 00:29:17;;;;;;;33.88;17.65;;;3.60;99.90;;;;;;5076227;28;20072;-77
2021/12/05 00:32:01;;;;;;;37.55;16.75;;;3.50;99.90;;;;;;5094390;28;20075;-76
2021/12/05 00:37:53;;;;;;;34.88;21.23;;;3.30;99.90;;;;;;5096067;28;20495;-74
2021/12/05 00:51:17;;;;;;;329.45;216.20;;;3.60;99.90;;;;;;5093159;28;20038;-74
2021/12/05 00:56:48;;;;;;;17.20;8.80;;;4.00;99.90;;;;;;5093721;28;20521;-76
2021/12/05 01:04:40;;;;;;;21.08;11.73;;;3.30;99.90;;;;;;5091785;28;20046;-77
2021/12/05 01:07:21;;;;;;;33.55;20.95;;;3.30;99.90;;;;;;5072887;28;20024;-85
2021/12/05 01:15:04;;;;;;;32.58;20.08;;;3.10;99.90;;;;;;5082772;28;20032;-79
2021/12/05 01:20:19;;;;;;;12.52;6.57;;;3.20;99.90;;;;;;5091866;28;20039;-80
2021/12/05 01:22:54;;;;;;;15.07;6.93;;;3.20;99.90;;;;;;5091205;28;20043;-80
2021/12/05 01:25:34;;;;;;;20.58;11.00;;;3.10;99.90;;;;;;5092138;28;20048;-76
2021/12/05 01:28:21;;;;;;;23.15;13.70;;;3.10;99.90;;;;;;5081719;28;20044;-83
2021/12/05 01:33:36;;;;;;;23.38;12.93;;;3.10;99.90;;;;;;5083947;28;20031;-78
2021/12/05 01:36:29;;;;;;;53.30;32.92;;;3.00;99.90;;;;;;5072009;28;20051;-89
2021/12/05 01:57:29;;;;;;;40.08;25.58;;;3.20;99.90;;;;;;5070234;28;20052;-77
2021/12/05 02:08:17;;;;;;;29.00;17.35;;;3.20;99.90;;;;;;5090414;28;20071;-78
2021/12/05 02:37:08;;;;;;;9.52;2.63;;;3.10;99.90;;;;;;5093543;28;20277;-75
2021/12/05 02:42:27;;;;;;;9.32;2.60;;;3.20;99.90;;;;;;5093627;28;20058;-75
2021/12/05 02:44:53;;;;;;;8.32;2.55;;;3.20;99.90;;;;;;5093658;28;20538;-76
2021/12/05 02:47:23;;;;;;;8.30;2.92;;;3.20;99.90;;;;;;5093471;28;20032;-76
2021/12/05 02:49:51;;;;;;;7.53;2.50;;;2.90;99.90;;;;;;5092838;28;20127;-74
2021/12/05 02:52:26;;;;;;;8.60;2.45;;;2.90;99.90;;;;;;5075189;28;20031;-73
2021/12/05 02:54:55;;;;;;;11.63;2.75;;;2.80;99.90;;;;;;5093593;28;20494;-80
2021/12/05 02:58:27;;;;;;;9.52;2.90;;;2.80;99.90;;;;;;5092974;28;20130;-73
2021/12/05 03:03:21;;;;;;;13.88;2.90;;;2.70;99.90;;;;;;5069213;28;20067;-73
2021/12/05 03:05:54;;;;;;;9.02;2.83;;;2.60;99.90;;;;;;5093321;28;20415;-78
2021/12/05 03:08:20;;;;;;;12.30;3.42;;;2.70;99.90;;;;;;5093353;28;20040;-74
2021/12/05 03:10:47;;;;;;;13.55;4.10;;;2.60;99.90;;;;;;5092828;28;20399;-74
2021/12/05 03:13:13;;;;;;;15.95;4.80;;;2.60;99.90;;;;;;5092950;28;20623;-74
2021/12/05 03:15:39;;;;;;;12.02;4.28;;;2.70;99.90;;;;;;5093164;28;20044;-74
2021/12/05 03:18:05;;;;;;;10.07;4.00;;;2.70;99.90;;;;;;5092582;28;20047;-73
2021/12/05 03:20:31;;;;;;;8.05;3.22;;;2.60;99.90;;;;;;5075046;28;20028;-74
2021/12/05 03:22:58;;;;;;;8.77;4.20;;;2.50;99.90;;;;;;5092899;28;20032;-74
2021/12/05 03:25:23;;;;;;;12.50;3.50;;;2.30;99.90;;;;;;5093002;28;20040;-76
2021/12/05 03:27:50;;;;;;;9.00;3.33;;;2.30;99.90;;;;;;5075059;28;20526;-75
2021/12/05 03:30:25;;;;;;;11.10;3.58;;;2.40;99.90;;;;;;5093029;28;20131;-74
2021/12/05 03:32:53;;;;;;;12.02;3.00;;;2.40;99.90;;;;;;5092891;28;20483;-76
2021/12/05 03:35:29;;;;;;;14.88;3.20;;;2.30;99.90;;;;;;5092736;28;20394;-74
2021/12/05 03:37:57;;;;;;;10.23;3.22;;;2.40;99.90;;;;;;5093074;28;20040;-73
2021/12/05 03:40:26;;;;;;;6.47;3.17;;;2.40;99.90;;;;;;5074985;28;20043;-73
2021/12/05 03:42:54;;;;;;;9.48;2.40;;;2.40;99.90;;;;;;5092749;28;20048;-74
2021/12/05 03:45:27;;;;;;;7.22;2.55;;;2.40;99.90;;;;;;5092897;28;20527;-73
2021/12/05 03:47:56;;;;;;;12.27;3.30;;;2.50;99.90;;;;;;5093020;28;20044;-74
2021/12/05 03:50:23;;;;;;;10.05;4.25;;;2.60;99.90;;;;;;5092881;28;20036;-74
2021/12/05 03:52:49;;;;;;;9.52;3.08;;;2.60;99.90;;;;;;5074765;28;20701;-82
2021/12/05 03:55:16;;;;;;;8.25;2.40;;;2.60;99.90;;;;;;5092823;28;20036;-73
2021/12/05 03:57:42;;;;;;;9.70;2.33;;;2.60;99.90;;;;;;5074662;28;20101;-73
2021/12/05 04:00:16;;;;;;;7.90;2.20;;;2.60;99.90;;;;;;5092822;28;20446;-74
2021/12/05 04:02:44;;;;;;;11.90;3.17;;;2.50;99.90;;;;;;5092096;28;20131;-73
2021/12/05 04:05:10;;;;;;;9.93;2.58;;;2.50;99.90;;;;;;5092595;28;20093;-73
2021/12/05 04:07:36;;;;;;;6.72;2.13;;;2.40;99.90;;;;;;5074420;28;20457;-73
2021/12/05 04:10:03;;;;;;;9.15;2.03;;;2.50;99.90;;;;;;5074255;28;20039;-73
2021/12/05 04:12:29;;;;;;;8.38;2.63;;;2.60;99.90;;;;;;5074517;28;20096;-73
2021/12/05 04:14:55;;;;;;;11.40;3.55;;;2.70;99.90;;;;;;5077351;28;20508;-73
2021/12/05 04:17:22;;;;;;;7.85;2.22;;;2.70;99.90;;;;;;5078432;28;20040;-73
2021/12/05 04:19:49;;;;;;;9.13;2.20;;;2.70;99.90;;;;;;5078052;28;20028;-72
2021/12/05 04:22:15;;;;;;;8.48;2.47;;;2.60;99.90;;;;;;5096107;28;20043;-73
2021/12/05 04:24:41;;;;;;;7.68;1.95;;;2.60;99.90;;;;;;5077883;28;20043;-75
2021/12/05 04:27:08;;;;;;;6.00;2.17;;;2.70;99.90;;;;;;5077727;28;20078;-73
2021/12/05 04:29:36;;;;;;;6.60;2.10;;;2.60;99.90;;;;;;5077877;28;20059;-73
2021/12/05 04:32:03;;;;;;;7.75;2.20;;;2.60;99.90;;;;;;5096171;28;20530;-73
2021/12/05 04:34:29;;;;;;;7.35;3.08;;;2.60;99.90;;;;;;5096136;28;20043;-73
2021/12/05 04:36:56;;;;;;;11.63;3.50;;;2.60;99.90;;;;;;5096006;28;20391;-73
2021/12/05 04:39:24;;;;;;;8.85;3.13;;;2.60;99.90;;;;;;5095947;28;20123;-73
2021/12/05 04:41:50;;;;;;;10.23;3.25;;;2.50;99.90;;;;;;5095898;28;20483;-73
2021/12/05 04:44:17;;;;;;;13.23;6.15;;;2.40;99.90;;;;;;5077648;28;20465;-73
2021/12/05 04:46:43;;;;;;;9.50;3.05;;;2.40;99.90;;;;;;5077765;28;20031;-79
2021/12/05 04:49:09;;;;;;;11.43;2.88;;;2.40;99.90;;;;;;5078008;28;20040;-73
2021/12/05 04:51:42;;;;;;;5.32;2.45;;;2.40;99.90;;;;;;5095726;28;20028;-73
2021/12/05 04:54:12;;;;;;;9.48;4.38;;;2.40;99.90;;;;;;5095684;28;20088;-73
2021/12/05 04:56:39;;;;;;;9.25;2.80;;;2.30;99.90;;;;;;5095728;28;20499;-73
2021/12/05 04:59:12;;;;;;;7.45;2.42;;;2.40;99.90;;;;;;5095676;28;20036;-73
2021/12/05 05:01:43;;;;;;;6.40;2.00;;;2.50;99.90;;;;;;5095509;28;20070;-73
2021/12/05 05:04:36;;;;;;;;;;;2.50;99.90;;;;;;5095038;28;20043;-73
2021/12/05 05:07:17;;;;;;;9.00;1.65;;;2.50;99.90;;;;;;5094585;28;19995;-73
2021/12/05 05:09:44;;;;;;;8.77;1.85;;;2.50;99.90;;;;;;5077241;28;20117;-77
2021/12/05 05:12:10;;;;;;;6.82;1.55;;;2.60;99.90;;;;;;5095223;28;20376;-72
2021/12/05 05:14:37;;;;;;;7.32;1.73;;;2.60;99.90;;;;;;5095503;28;20088;-73
2021/12/05 05:17:03;;;;;;;8.25;2.50;;;2.60;99.90;;;;;;5095303;28;20384;-73
2021/12/05 05:19:35;;;;;;;8.10;1.80;;;2.60;99.90;;;;;;5077378;28;20071;-73
2021/12/05 05:22:32;;;;;;;6.65;2.30;;;2.60;99.90;;;;;;5077037;28;20439;-73
2021/12/05 05:46:17;;;;;;;3.20;1.10;;;2.50;99.90;;;;;;5094346;28;20557;-73
2021/12/05 05:48:59;;;;;;;3.40;1.00;;;2.50;99.90;;;;;;5094578;28;20094;-73
2021/12/05 05:51:25;;;;;;;3.15;1.10;;;2.50;99.90;;;;;;5094550;28;20051;-73
2021/12/05 05:53:51;;;;;;;4.95;1.23;;;2.50;99.90;;;;;;5094486;28;20040;-74
2021/12/05 05:56:22;;;;;;;2.90;1.02;;;2.30;99.90;;;;;;5076303;28;20130;-73
2021/12/05 05:59:00;;;;;;;4.10;1.20;;;2.30;99.90;;;;;;5094531;28;20035;-82
2021/12/05 06:04:02;;;;;;;5.25;2.13;;;2.40;99.90;;;;;;5094255;28;20040;-76
2021/12/05 06:06:30;;;;;;;4.22;1.40;;;2.50;99.90;;;;;;5094282;28;20040;-73
2021/12/05 06:08:57;;;;;;;5.57;1.20;;;2.50;99.90;;;;;;5092250;28;20047;-74
2021/12/05 06:11:22;;;;;;;5.60;1.50;;;2.40;99.90;;;;;;5066859;28;20032;-85
2021/12/05 06:13:49;;;;;;;7.75;2.08;;;2.30;99.90;;;;;;5070350;28;20043;-74
2021/12/05 06:16:15;;;;;;;7.30;1.92;;;2.30;99.90;;;;;;5072997;28;20036;-74
2021/12/05 06:18:42;;;;;;;4.07;1.70;;;2.40;99.90;;;;;;5056008;28;20145;-75
2021/12/05 06:21:09;;;;;;;4.88;1.23;;;2.20;99.90;;;;;;5089487;28;20122;-87
2021/12/05 06:23:36;;;;;;;5.05;2.05;;;2.20;99.90;;;;;;5092230;28;20059;-74
2021/12/05 06:26:03;;;;;;;3.28;1.58;;;2.30;99.90;;;;;;5093961;28;20036;-74
2021/12/05 06:28:39;;;;;;;8.73;3.22;;;2.30;99.90;;;;;;5075731;28;20036;-73
2021/12/05 06:47:22;;;;;;;10.27;5.55;;;2.50;99.90;;;;;;5069346;28;20044;-73
2021/12/05 06:49:48;;;;;;;;;;;2.40;99.90;;;;;;5093509;28;20044;-73
2021/12/05 06:52:14;;;;;;;11.32;4.63;;;2.20;99.90;;;;;;5075244;28;20266;-77
2021/12/05 06:54:41;;;;;;;5.63;2.00;;;2.30;99.90;;;;;;5093279;28;20050;-73
2021/12/05 06:57:08;;;;;;;5.20;1.20;;;2.30;99.90;;;;;;5075074;28;20028;-73
2021/12/05 06:59:38;;;;;;;2.92;1.77;;;2.30;99.90;;;;;;5077278;28;20036;-73
2021/12/05 07:02:04;;;;;;;6.10;2.17;;;2.20;99.90;;;;;;5075317;28;20050;-73
2021/12/05 07:06:59;;;;;;;4.88;1.60;;;2.10;99.90;;;;;;5093224;28;20039;-74
2021/12/05 07:09:26;;;;;;;4.35;1.67;;;2.10;99.90;;;;;;5075155;28;20154;-74
2021/12/05 07:20:18;;;;;;;6.97;3.97;;;2.00;99.90;;;;;;5049967;28;20603;-75
2021/12/05 07:25:52;;;;;;;4.18;1.20;;;2.10;99.90;;;;;;5047703;28;20044;-74
2021/12/05 07:42:15;;;;;;;6.85;1.73;;;2.40;99.90;;;;;;5092782;28;20034;-73
2021/12/05 07:44:44;;;;;;;16.27;6.72;;;2.50;99.90;;;;;;5092719;28;20051;-73
2021/12/05 07:47:09;;;;;;;12.40;7.05;;;2.50;99.90;;;;;;5074680;28;20436;-73
2021/12/05 07:49:35;;;;;;;11.52;4.35;;;2.40;99.90;;;;;;5096496;28;20047;-73
2021/12/05 07:52:01;;;;;;;12.77;6.60;;;2.30;99.90;;;;;;5096613;28;20031;-78
2021/12/05 07:59:48;;;;;;;5.97;2.50;;;2.40;99.90;;;;;;5096470;28;20126;-74
2021/12/05 08:16:05;;;;;;;121.63;45.00;;;2.60;99.90;;;;;;5096261;28;20085;-73
2021/12/05 08:18:31;;;;;;;42.40;21.52;;;2.60;99.90;;;;;;5096572;28;20089;-73
2021/12/05 08:20:59;;;;;;;24.55;14.10;;;2.60;99.90;;;;;;5096525;28;20044;-73
2021/12/05 08:23:26;;;;;;;98.40;51.65;;;2.60;99.90;;;;;;5096266;28;20134;-73
2021/12/05 08:26:05;;;;;;;65.15;34.97;;;2.60;99.90;;;;;;5096246;28;20032;-73
2021/12/05 09:51:42;;;;;;;8.02;3.80;;;4.10;99.90;;;;;;5101922;28;20101;-74
2021/12/05 10:10:25;;;;;;;2.50;1.52;;;3.80;99.90;;;;;;5109810;28;20035;-84
2021/12/05 10:13:31;;;;;;;4.28;2.60;;;3.50;99.90;;;;;;5105256;28;20148;-81
2021/12/05 10:35:58;;;;;;;19.48;12.15;;;3.50;99.90;;;;;;5102032;28;20396;-74
2021/12/05 10:38:39;;;;;;;9.27;4.97;;;3.50;99.90;;;;;;5095384;28;20039;-92
2021/12/05 10:43:56;;;;;;;5.40;2.80;;;3.30;99.90;;;;;;5093180;28;20046;-73
2021/12/05 10:46:24;;;;;;;5.55;2.20;;;3.50;99.90;;;;;;5094248;28;20089;-76
2021/12/05 10:48:53;;;;;;;5.10;3.17;;;3.60;99.90;;;;;;5073221;28;20031;-78
2021/12/05 10:51:24;;;;;;;6.72;5.80;;;3.50;99.90;;;;;;5089331;28;20407;-75
2021/12/05 10:53:53;;;;;;;3.05;2.15;;;3.20;99.90;;;;;;5111863;28;20119;-74
2021/12/05 10:56:26;;;;;;;4.80;2.03;;;3.60;99.90;;;;;;5093715;28;20101;-89
2021/12/05 10:59:03;;;;;;;2.00;1.80;;;3.60;99.90;;;;;;5087212;28;20036;-75
2021/12/05 11:01:42;;;;;;;4.88;2.53;;;3.80;99.90;;;;;;5111314;28;20081;-75
2021/12/05 11:04:11;;;;;;;8.73;4.55;;;3.80;99.90;;;;;;5108163;28;20051;-74
2021/12/05 11:06:57;;;;;;;3.30;1.13;;;3.90;99.90;;;;;;5104375;28;20093;-74
2021/12/05 11:09:33;;;;;;;23.98;10.68;;;3.90;99.90;;;;;;5108264;28;20061;-77
2021/12/05 11:12:20;;;;;;;2.22;1.00;;;4.10;99.90;;;;;;5073438;28;20045;-79
2021/12/05 11:14:50;;;;;;;2.40;0.85;;;4.10;99.90;;;;;;5086739;28;20067;-72
2021/12/05 11:17:18;;;;;;;2.00;0.90;;;3.90;99.90;;;;;;5070629;28;20063;-78
2021/12/05 11:19:48;;;;;;;4.50;0.85;;;3.90;99.90;;;;;;5102389;28;20054;-76
2021/12/05 11:22:22;;;;;;;2.10;1.20;;;3.90;99.90;;;;;;5088582;28;20533;-77
2021/12/05 11:25:02;;;;;;;1.63;0.70;;;3.90;99.90;;;;;;5084836;28;20503;-77
2021/12/05 11:27:36;;;;;;;2.80;1.02;;;3.80;99.90;;;;;;5100436;28;20027;-78
2021/12/05 11:30:16;;;;;;;2.00;0.90;;;3.60;99.90;;;;;;5102059;28;20054;-80
2021/12/05 11:32:49;;;;;;;1.75;0.80;;;3.40;99.90;;;;;;5100758;28;20096;-78
2021/12/05 11:35:20;;;;;;;3.58;0.80;;;3.30;99.90;;;;;;5101283;28;20231;-80
2021/12/05 11:37:59;;;;;;;3.83;0.93;;;3.20;99.90;;;;;;5112984;28;20039;-79
2021/12/05 11:40:30;;;;;;;3.72;1.10;;;3.30;99.90;;;;;;5113478;28;20042;-81
2021/12/05 11:43:02;;;;;;;1.40;0.65;;;3.40;99.90;;;;;;5104928;28;20261;-79
2021/12/05 11:45:30;;;;;;;2.08;0.60;;;3.50;99.90;;;;;;5097041;28;20043;-77
2021/12/05 11:47:58;;;;;;;3.03;0.82;;;3.60;99.90;;;;;;5105992;28;20124;-78
2021/12/05 11:50:37;;;;;;;5.68;1.48;;;4.00;99.90;;;;;;5109885;28;20043;-78
2021/12/05 11:53:04;;;;;;;6.03;1.13;;;4.30;99.90;;;;;;5112934;28;20058;-78
2021/12/05 11:55:31;;;;;;;2.65;0.70;;;4.30;99.90;;;;;;5112970;28;20063;-78
2021/12/05 11:58:02;;;;;;;3.30;1.30;;;4.20;99.90;;;;;;5094663;28;20447;-78
2021/12/05 12:00:30;;;;;;;6.30;1.50;;;4.50;99.90;;;;;;5112947;28;20056;-78
2021/12/05 12:02:56;;;;;;;4.00;0.93;;;4.60;99.90;;;;;;5098942;28;20056;-79
2021/12/05 12:05:29;;;;;;;5.05;1.20;;;4.70;99.90;;;;;;5108828;28;20108;-79
2021/12/05 12:08:02;;;;;;;6.70;1.25;;;4.40;99.90;;;;;;5110626;28;20042;-77
2021/12/05 12:10:42;;;;;;;4.88;1.38;;;4.00;99.90;;;;;;5099501;28;20028;-77
2021/12/05 12:13:11;;;;;;;3.70;0.90;;;3.60;99.90;;;;;;5080555;28;20041;-75
2021/12/05 12:15:38;;;;;;;4.35;0.90;;;4.00;99.90;;;;;;5099516;28;20040;-75
2021/12/05 12:18:14;;;;;;;5.20;1.27;;;4.20;99.90;;;;;;5098270;28;20040;-77
2021/12/05 12:20:41;;;;;;;2.97;0.90;;;4.40;99.90;;;;;;5094266;28;20117;-79
2021/12/05 12:23:07;;;;;;;3.33;0.98;;;4.90;99.90;;;;;;5098943;28;20046;-80
2021/12/05 12:25:42;;;;;;;3.88;1.15;;;4.60;99.90;;;;;;5082460;28;20028;-87
2021/12/05 12:28:09;;;;;;;3.83;1.13;;;4.70;99.90;;;;;;5091519;28;20071;-79
2021/12/05 12:30:38;;;;;;;38.50;22.52;;;4.70;99.90;;;;;;5094708;28;20024;-82
2021/12/05 12:33:10;;;;;;;6.60;2.67;;;4.40;99.90;;;;;;5098665;28;20296;-81
2021/12/05 12:35:38;;;;;;;5.13;1.50;;;4.20;99.90;;;;;;5096653;28;20055;-78
2021/12/05 12:38:09;;;;;;;3.38;1.15;;;4.50;99.90;;;;;;5101951;28;20618;-80
2021/12/05 12:40:57;;;;;;;4.70;1.20;;;4.50;99.90;;;;;;5094943;28;20040;-80
2021/12/05 12:43:40;;;;;;;6.10;1.33;;;4.30;99.90;;;;;;5097937;28;20130;-77
2021/12/05 12:46:23;;;;;;;4.22;1.02;;;4.50;99.90;;;;;;5102902;28;20425;-80
2021/12/05 12:48:59;;;;;;;2.80;0.98;;;4.40;99.90;;;;;;5086665;28;20055;-80
2021/12/05 12:51:38;;;;;;;7.13;1.00;;;4.30;99.90;;;;;;5088972;28;20036;-79
2021/12/05 12:54:09;;;;;;;5.10;1.30;;;4.40;99.90;;;;;;5091914;28;20040;-77
2021/12/05 12:56:35;;;;;;;6.68;1.70;;;4.40;99.90;;;;;;5089036;28;20035;-76
2021/12/05 12:59:06;;;;;;;6.85;1.30;;;4.20;99.90;;;;;;5092777;28;20035;-76
2021/12/05 13:04:56;;;;;;;7.88;1.52;;;4.50;99.90;;;;;;5091680;28;19920;-77
2021/12/05 13:10:34;;;;;;;4.78;1.52;;;4.30;99.90;;;;;;5103529;28;20041;-82
2021/12/05 13:13:02;;;;;;;9.75;1.55;;;4.60;99.90;;;;;;5113630;28;20047;-79
2021/12/05 13:15:39;;;;;;;4.47;1.25;;;4.60;99.90;;;;;;5113641;28;20489;-78
2021/12/05 13:18:08;;;;;;;6.70;1.48;;;4.50;99.90;;;;;;5108147;28;20040;-78
2021/12/05 13:20:43;;;;;;;6.65;1.70;;;4.30;99.90;;;;;;5097260;28;20130;-77
2021/12/05 13:23:14;;;;;;;9.43;1.75;;;4.40;99.90;;;;;;5101780;28;20147;-77
2021/12/05 13:26:11;;;;;;;5.57;1.60;;;4.40;99.90;;;;;;5100171;28;20077;-78
2021/12/05 13:28:45;;;;;;;7.30;1.58;;;4.40;99.90;;;;;;5103958;28;20039;-79
2021/12/05 13:31:29;;;;;;;3.75;1.27;;;4.20;99.90;;;;;;5101290;28;20097;-76
2021/12/05 13:34:32;;;;;;;15.77;2.00;;;4.30;99.90;;;;;;5110901;28;20187;-77
2021/12/05 13:37:23;;;;;;;5.28;1.40;;;4.40;99.90;;;;;;5100657;28;20482;-76
2021/12/05 13:39:49;;;;;;;;;;;4.40;99.90;;;;;;5097515;28;20035;-76
2021/12/05 13:42:42;;;;;;;8.73;2.08;;;4.50;99.90;;;;;;5106436;28;20008;-76
2021/12/05 13:45:21;;;;;;;7.88;1.73;;;4.30;99.90;;;;;;5110207;28;20050;-76
2021/12/05 13:48:07;;;;;;;7.55;2.10;;;4.30;99.90;;;;;;5099900;28;20043;-76
2021/12/05 13:50:42;;;;;;;6.10;1.63;;;4.40;99.90;;;;;;5100914;28;20046;-75
2021/12/05 13:53:07;;;;;;;8.65;1.75;;;4.40;99.90;;;;;;5113070;28;20032;-77
2021/12/05 13:55:43;;;;;;;6.30;2.00;;;4.50;99.90;;;;;;5112739;28;20047;-76
2021/12/05 13:58:32;;;;;;;5.95;1.30;;;4.60;99.90;;;;;;5113120;28;20055;-75
2021/12/05 14:01:04;;;;;;;6.57;1.77;;;4.50;99.90;;;;;;5113975;28;20093;-76
2021/12/05 14:03:47;;;;;;;161.10;104.38;;;4.50;99.90;;;;;;5104345;28;20058;-79
2021/12/05 14:06:40;;;;;;;75.07;34.22;;;4.50;99.90;;;;;;5088429;28;20063;-75
2021/12/05 14:09:20;;;;;;;22.38;10.02;;;4.40;99.90;;;;;;5089678;28;20499;-76
2021/12/05 14:11:48;;;;;;;90.95;51.47;;;4.30;99.90;;;;;;5089814;28;20047;-74
2021/12/05 14:14:18;;;;;;;10.95;3.83;;;4.30;99.90;;;;;;5084755;28;20105;-75
2021/12/05 14:16:48;;;;;;;111.78;69.25;;;4.30;99.90;;;;;;5083455;28;20036;-79
2021/12/05 14:19:18;;;;;;;31.93;17.93;;;4.40;99.90;;;;;;5090007;28;20036;-75
2021/12/05 14:21:48;;;;;;;61.53;34.27;;;4.40;99.90;;;;;;5095110;28;20040;-77
2021/12/05 14:24:16;;;;;;;21.35;12.15;;;4.50;99.90;;;;;;5073102;28;20048;-76
2021/12/05 14:26:42;;;;;;;10.65;5.38;;;4.40;99.90;;;;;;5071805;28;20519;-76
2021/12/05 14:29:12;;;;;;;5.53;2.28;;;4.40;99.90;;;;;;5088058;28;20043;-77
2021/12/05 14:31:46;;;;;;;7.97;3.33;;;4.50;99.90;;;;;;5090831;28;20436;-77
2021/12/05 14:34:13;;;;;;;7.70;3.33;;;4.50;99.90;;;;;;5074691;28;20036;-77
2021/12/05 14:36:46;;;;;;;6.40;1.60;;;4.40;99.90;;;;;;5100088;28;20042;-76
2021/12/05 14:39:33;;;;;;;5.80;2.28;;;4.40;99.90;;;;;;5100991;28;20055;-75
2021/12/05 14:42:03;;;;;;;6.03;2.20;;;4.40;99.90;;;;;;5088965;28;20383;-76
2021/12/05 14:44:30;;;;;;;7.90;2.08;;;4.40;99.90;;;;;;5080244;28;20085;-75
2021/12/05 14:46:58;;;;;;;5.40;1.25;;;4.40;99.90;;;;;;5090135;28;20050;-75
2021/12/05 14:49:27;;;;;;;4.68;1.40;;;4.40;99.90;;;;;;5090981;28;20032;-75
2021/12/05 14:51:54;;;;;;;4.35;1.55;;;4.30;99.90;;;;;;5104118;28;20048;-75
2021/12/05 14:54:27;;;;;;;5.85;1.60;;;4.30;99.90;;;;;;5100536;28;20044;-74
2021/12/05 14:56:54;;;;;;;5.28;1.98;;;4.30;99.90;;;;;;5086556;28;20031;-75
2021/12/05 14:59:21;;;;;;;8.45;1.80;;;4.30;99.90;;;;;;5110815;28;20050;-75
2021/12/05 15:01:54;;;;;;;9.00;2.65;;;4.30;99.90;;;;;;5110700;28;20038;-75
2021/12/05 15:04:23;;;;;;;9.00;4.32;;;4.40;99.90;;;;;;5104721;28;20035;-75
2021/12/05 15:06:49;;;;;;;8.43;2.42;;;4.40;99.90;;;;;;5105474;28;20028;-75
2021/12/05 15:09:24;;;;;;;27.58;18.73;;;4.40;99.90;;;;;;5097172;28;20048;-78
2021/12/05 15:11:52;;;;;;;9.77;1.75;;;4.30;99.90;;;;;;5092142;28;20075;-74
2021/12/05 15:14:19;;;;;;;13.95;6.55;;;4.30;99.90;;;;;;5087332;28;20414;-75
2021/12/05 15:16:59;;;;;;;10.10;3.83;;;4.20;99.90;;;;;;5088818;28;20043;-75
2021/12/05 15:19:25;;;;;;;11.45;5.60;;;4.20;99.90;;;;;;5096783;28;20040;-74
2021/12/05 15:21:51;;;;;;;10.68;6.22;;;4.20;99.90;;;;;;5099708;28;20131;-82
2021/12/05 15:24:19;;;;;;;18.95;9.40;;;4.20;99.90;;;;;;5096816;28;20142;-78
2021/12/05 15:26:45;;;;;;;9.85;2.47;;;4.30;99.90;;;;;;5086812;28;20044;-75
2021/12/05 15:29:12;;;;;;;13.18;7.78;;;4.20;99.90;;;;;;5093979;28;20039;-75
2021/12/05 15:31:41;;;;;;;10.65;7.43;;;4.10;99.90;;;;;;5090062;28;20038;-75
2021/12/05 15:34:23;;;;;;;6.95;2.20;;;4.10;99.90;;;;;;5099618;28;20126;-75
2021/12/05 15:36:49;;;;;;;7.68;2.78;;;4.10;99.90;;;;;;5110878;28;20463;-75
2021/12/05 15:39:20;;;;;;;9.52;3.88;;;4.00;99.90;;;;;;5112696;28;20043;-75
2021/12/05 15:41:55;;;;;;;12.35;5.00;;;4.00;99.90;;;;;;5101347;28;20317;-75
2021/12/05 15:44:24;;;;;;;11.00;2.80;;;4.10;99.90;;;;;;5089373;28;20054;-75
2021/12/05 15:46:49;;;;;;;8.05;3.53;;;4.10;99.90;;;;;;5088544;28;20526;-76
2021/12/05 15:49:15;;;;;;;9.77;3.00;;;4.10;99.90;;;;;;5088267;28;20036;-75
2021/12/05 15:51:41;;;;;;;6.18;3.08;;;4.10;99.90;;;;;;5089739;28;20059;-76
2021/12/05 15:54:07;;;;;;;9.25;3.60;;;4.10;99.90;;;;;;5088572;28;20050;-81
2021/12/05 15:56:33;;;;;;;33.65;16.45;;;4.10;99.90;;;;;;5090271;28;20067;-75
2021/12/05 15:59:02;;;;;;;14.32;4.90;;;4.10;99.90;;;;;;5090207;28;20135;-75
2021/12/05 16:01:29;;;;;;;7.10;3.35;;;4.00;99.90;;;;;;5092688;28;20044;-75
2021/12/05 16:04:00;;;;;;;10.57;2.90;;;4.10;99.90;;;;;;5091305;28;20084;-78
2021/12/05 16:06:37;;;;;;;5.30;2.60;;;4.00;99.90;;;;;;5087248;28;20456;-76
2021/12/05 16:09:13;;;;;;;9.50;2.33;;;3.90;99.90;;;;;;5083754;28;20131;-77
2021/12/05 16:11:39;;;;;;;6.78;2.15;;;3.80;99.90;;;;;;5091765;28;20118;-78
2021/12/05 16:14:07;;;;;;;6.93;2.65;;;3.70;99.90;;;;;;5084385;28;20036;-77
2021/12/05 16:16:35;;;;;;;5.55;2.45;;;3.60;99.90;;;;;;5086528;28;20086;-76
2021/12/05 16:19:06;;;;;;;8.20;2.97;;;3.70;99.90;;;;;;5093341;28;20035;-79
2021/12/05 16:21:38;;;;;;;8.02;3.28;;;3.60;99.90;;;;;;5092743;28;20093;-78
2021/12/05 16:24:07;;;;;;;6.75;2.67;;;3.60;99.90;;;;;;5098976;28;20525;-81
2021/12/05 16:26:33;;;;;;;22.48;11.20;;;3.50;99.90;;;;;;5109441;28;20036;-79
2021/12/05 16:29:03;;;;;;;12.20;5.65;;;3.60;99.90;;;;;;5093419;28;20127;-81
2021/12/05 16:31:38;;;;;;;23.05;11.65;;;3.50;99.90;;;;;;5093880;28;20495;-81
2021/12/05 16:34:08;;;;;;;27.17;14.05;;;3.60;99.90;;;;;;5093351;28;20622;-79
2021/12/05 16:36:35;;;;;;;19.95;11.90;;;3.60;99.90;;;;;;5092598;28;20046;-79
2021/12/05 16:39:11;;;;;;;18.02;9.05;;;3.60;99.90;;;;;;5092906;28;20522;-80
2021/12/05 16:41:41;;;;;;;25.23;7.60;;;3.60;99.90;;;;;;5092865;28;20051;-79
2021/12/05 16:44:14;;;;;;;10.70;4.28;;;3.50;99.90;;;;;;5086110;28;20040;-79
2021/12/05 16:46:49;;;;;;;5.70;3.50;;;3.40;99.90;;;;;;5093989;28;20043;-81
2021/12/05 16:49:19;;;;;;;9.23;2.80;;;3.30;99.90;;;;;;5095875;28;20040;-81
2021/12/05 16:51:48;;;;;;;7.47;2.15;;;3.30;99.90;;;;;;5079937;28;20032;-79
2021/12/05 16:54:25;;;;;;;8.57;2.70;;;3.00;99.90;;;;;;5095860;28;20055;-80
2021/12/05 16:56:56;;;;;;;16.67;6.57;;;3.00;99.90;;;;;;5093830;28;20032;-80
2021/12/05 16:59:29;;;;;;;7.15;3.08;;;2.90;99.90;;;;;;5092652;28;20047;-79
2021/12/05 17:02:19;;;;;;;18.50;7.22;;;2.70;99.90;;;;;;5087544;28;20035;-80
2021/12/05 17:04:58;;;;;;;11.43;2.50;;;2.80;99.90;;;;;;5107900;28;20050;-78
2021/12/05 17:08:00;;;;;;;5.00;1.88;;;2.80;99.90;;;;;;5097614;28;20043;-81
2021/12/05 17:10:26;;;;;;;75.45;42.90;;;2.80;99.90;;;;;;5086555;28;20151;-79
2021/12/05 17:12:57;;;;;;;49.28;27.10;;;2.80;99.90;;;;;;5096845;28;20517;-75
2021/12/05 17:15:27;;;;;;;8.25;2.80;;;2.80;99.90;;;;;;5110180;28;20050;-75
2021/12/05 17:18:02;;;;;;;12.63;4.18;;;2.80;99.90;;;;;;5097893;28;20036;-75
2021/12/05 17:20:29;;;;;;;6.65;2.15;;;2.60;99.90;;;;;;5092015;28;20047;-75
2021/12/05 17:22:59;;;;;;;4.55;1.63;;;2.50;99.90;;;;;;5100791;28;20044;-75
2021/12/05 17:25:32;;;;;;;4.03;1.60;;;2.50;99.90;;;;;;5114296;28;20520;-76
2021/12/05 17:27:59;;;;;;;5.32;1.75;;;2.50;99.90;;;;;;5099162;28;20522;-76
2021/12/05 17:30:25;;;;;;;7.40;1.73;;;2.50;99.90;;;;;;5093036;28;20514;-76
2021/12/05 17:32:51;;;;;;;6.18;1.40;;;2.50;99.90;;;;;;5098618;28;20051;-75
2021/12/05 17:35:17;;;;;;;6.10;1.13;;;2.40;99.90;;;;;;5098149;28;20036;-75
2021/12/05 17:37:47;;;;;;;3.45;1.10;;;2.50;99.90;;;;;;5091966;28;20044;-76
2021/12/05 17:40:14;;;;;;;133.13;61.05;;;2.50;99.90;;;;;;5092422;28;20032;-75
2021/12/05 17:42:42;;;;;;;16.17;7.32;;;2.60;99.90;;;;;;5092219;28;20556;-76
2021/12/05 17:45:11;;;;;;;19.02;8.57;;;2.50;99.90;;;;;;5074430;28;20419;-76
2021/12/05 17:47:37;;;;;;;28.02;12.45;;;2.60;99.90;;;;;;5093117;28;20054;-76
2021/12/05 17:50:14;;;;;;;17.63;10.10;;;2.60;99.90;;;;;;5093687;28;20031;-76
2021/12/05 17:52:40;;;;;;;15.98;10.27;;;2.50;99.90;;;;;;5092499;28;20036;-76
2021/12/05 17:55:17;;;;;;;64.82;55.55;;;2.60;99.90;;;;;;5092305;28;20572;-77
2021/12/05 17:57:50;;;;;;;12.00;7.18;;;2.70;99.90;;;;;;5109186;28;20415;-77
2021/12/05 18:02:56;;;;;;;5.10;2.60;;;2.80;99.90;;;;;;5092450;28;20036;-77
2021/12/05 18:05:34;;;;;;;9.90;4.05;;;2.80;99.90;;;;;;5091449;28;20403;-76
2021/12/05 18:08:07;;;;;;;8.32;4.93;;;2.90;99.90;;;;;;5090878;28;20032;-77
2021/12/05 18:10:36;;;;;;;9.93;4.53;;;2.80;99.90;;;;;;5075792;28;20529;-77
2021/12/05 18:13:06;;;;;;;7.25;3.13;;;2.60;99.90;;;;;;5071548;28;20055;-82
2021/12/05 18:15:35;;;;;;;8.82;2.75;;;2.60;99.90;;;;;;5071382;28;20048;-77
2021/12/05 18:18:03;;;;;;;5.32;2.65;;;2.60;99.90;;;;;;5071631;28;20051;-80
2021/12/05 18:20:34;;;;;;;6.68;3.20;;;2.60;99.90;;;;;;5072023;28;20037;-78
2021/12/05 18:23:02;;;;;;;13.57;8.60;;;2.70;99.90;;;;;;5069694;28;20056;-77
2021/12/05 18:25:29;;;;;;;8.95;5.40;;;2.60;99.90;;;;;;5071400;28;20496;-75
2021/12/05 18:27:56;;;;;;;439.17;206.82;;;2.70;99.90;;;;;;5071456;28;20082;-75
2021/12/05 18:30:23;;;;;;;1793.95;768.67;;;2.90;99.90;;;;;;5071469;28;20029;-76
2021/12/05 18:32:51;;;;;;;93.13;41.97;;;3.30;99.90;;;;;;5070304;28;20044;-76
2021/12/05 18:35:17;;;;;;;170.57;58.28;;;3.10;99.90;;;;;;5071507;28;20089;-75
2021/12/05 18:37:45;;;;;;;40.78;11.90;;;3.00;99.90;;;;;;5071196;28;20040;-75
2021/12/05 18:40:11;;;;;;;5.05;2.25;;;2.90;99.90;;;;;;5088216;28;20126;-77
2021/12/05 18:42:38;;;;;;;4.18;1.05;;;2.80;99.90;;;;;;5091828;28;20063;-78
2021/12/05 18:45:05;;;;;;;5.40;2.08;;;2.70;99.90;;;;;;5091204;28;20039;-76
2021/12/05 18:47:32;;;;;;;6.35;2.10;;;2.80;99.90;;;;;;5091313;28;20048;-76